Time;durP1;ratioP1;P1;durP2;ratioP2;P2;SDS_P1;SDS_P2;PMS_P1;PMS_P2;Temp;Humidity;BMP_temperature;BMP_pressure;BME280_temperature;BME280_humidity;BME280_pressure;Samples;Min_cycle;Max_cycle;Signal;HPM_P1;HPM_P2
2021/11/16 00:02:06;;;;;;;33.28;16.38;;;;;;;;;;5026986;28;20025;-82
2021/11/16 00:04:32;;;;;;;32.03;16.50;;;;;;;;;;5009688;28;20025;-85
2021/11/16 00:06:58;;;;;;;33.20;16.10;;;;;;;;;;5005527;28;20050;-82
2021/11/16 00:09:23;;;;;;;32.42;16.08;;;;;;;;;;4987624;28;20527;-83
2021/11/16 00:11:49;;;;;;;33.58;16.30;;;;;;;;;;4992772;28;20022;-83
2021/11/16 00:14:15;;;;;;;34.90;17.13;;;;;;;;;;5013681;28;20381;-86
2021/11/16 00:16:41;;;;;;;34.85;15.75;;;;;;;;;;5006225;28;20086;-82
2021/11/16 00:19:11;;;;;;;32.95;16.02;;;;;;;;;;4993836;28;20028;-81
2021/11/16 00:21:36;;;;;;;34.42;16.45;;;;;;;;;;4990332;28;20037;-82
2021/11/16 00:24:09;;;;;;;34.13;15.93;;;;;;;;;;5013581;28;20404;-82
2021/11/16 00:26:35;;;;;;;36.40;16.83;;;;;;;;;;4993308;28;20030;-83
2021/11/16 00:29:01;;;;;;;33.85;17.15;;;;;;;;;;5006051;28;20092;-85
2021/11/16 00:31:26;;;;;;;30.27;15.85;;;;;;;;;;5004779;28;20022;-86
2021/11/16 00:33:53;;;;;;;33.47;15.60;;;;;;;;;;5014164;28;20037;-86
2021/11/16 00:36:19;;;;;;;32.40;16.83;;;;;;;;;;4994010;28;20022;-82
2021/11/16 00:38:44;;;;;;;36.28;17.10;;;;;;;;;;4993631;28;20022;-85
2021/11/16 00:41:10;;;;;;;32.05;16.45;;;;;;;;;;4987372;28;20115;-82
2021/11/16 00:43:35;;;;;;;35.08;17.92;;;;;;;;;;4989651;28;20078;-82
2021/11/16 00:46:01;;;;;;;32.97;17.05;;;;;;;;;;5009004;28;20030;-82
2021/11/16 00:48:27;;;;;;;36.85;18.48;;;;;;;;;;5008764;28;20029;-83
2021/11/16 00:50:56;;;;;;;35.47;17.00;;;;;;;;;;4989120;28;20117;-83
2021/11/16 00:53:23;;;;;;;33.53;17.17;;;;;;;;;;5006745;28;20493;-82
2021/11/16 00:55:50;;;;;;;33.38;16.95;;;;;;;;;;4993141;28;20477;-82
2021/11/16 00:58:15;;;;;;;31.65;15.82;;;;;;;;;;4996794;28;20477;-85
2021/11/16 01:00:42;;;;;;;35.38;17.35;;;;;;;;;;5010965;28;20033;-80
2021/11/16 01:03:09;;;;;;;37.35;17.27;;;;;;;;;;5004711;28;20111;-83
2021/11/16 01:05:35;;;;;;;34.88;16.55;;;;;;;;;;4991371;28;20037;-82
2021/11/16 01:08:00;;;;;;;34.03;17.08;;;;;;;;;;5013668;28;20055;-83
2021/11/16 01:10:26;;;;;;;30.02;16.02;;;;;;;;;;5005330;28;20088;-84
2021/11/16 01:12:51;;;;;;;34.33;16.65;;;;;;;;;;5010065;28;20207;-82
2021/11/16 01:15:18;;;;;;;36.13;17.05;;;;;;;;;;5006234;28;20492;-85
2021/11/16 01:17:44;;;;;;;34.47;16.58;;;;;;;;;;5004791;28;20099;-82
2021/11/16 01:20:11;;;;;;;33.83;15.55;;;;;;;;;;5009463;28;20025;-82
2021/11/16 01:22:37;;;;;;;33.63;16.77;;;;;;;;;;5021890;28;20057;-83
2021/11/16 01:25:05;;;;;;;34.35;16.45;;;;;;;;;;5026997;28;20485;-82
2021/11/16 01:27:34;;;;;;;31.25;16.25;;;;;;;;;;5010844;28;20109;-84
2021/11/16 01:30:01;;;;;;;36.58;17.50;;;;;;;;;;5010294;28;20469;-82
2021/11/16 01:34:53;;;;;;;32.20;15.40;;;;;;;;;;5026372;28;20095;-83
2021/11/16 01:37:18;;;;;;;35.50;16.73;;;;;;;;;;5022775;28;20026;-81
2021/11/16 01:39:44;;;;;;;32.25;16.23;;;;;;;;;;5011344;28;20112;-81
2021/11/16 01:42:10;;;;;;;32.40;16.13;;;;;;;;;;5020535;28;20025;-82
2021/11/16 01:44:36;;;;;;;34.92;15.73;;;;;;;;;;5013105;28;20029;-85
2021/11/16 01:47:01;;;;;;;29.52;14.23;;;;;;;;;;5007743;28;20511;-84
2021/11/16 01:49:26;;;;;;;30.55;15.23;;;;;;;;;;5008811;28;20040;-82
2021/11/16 01:51:52;;;;;;;31.92;16.83;;;;;;;;;;5011371;28;20129;-82
2021/11/16 01:54:17;;;;;;;31.75;16.10;;;;;;;;;;5012821;28;20469;-83
2021/11/16 01:56:45;;;;;;;30.05;14.60;;;;;;;;;;5007943;28;20484;-82
2021/11/16 01:59:11;;;;;;;35.40;16.52;;;;;;;;;;5011828;28;20087;-82
2021/11/16 02:01:40;;;;;;;31.40;15.57;;;;;;;;;;5024811;28;20033;-83
2021/11/16 02:04:08;;;;;;;33.63;16.40;;;;;;;;;;5022492;28;20037;-82
2021/11/16 02:06:39;;;;;;;32.83;16.13;;;;;;;;;;5008407;28;20036;-82
2021/11/16 02:09:08;;;;;;;31.67;15.82;;;;;;;;;;5024808;28;20098;-83
2021/11/16 02:11:34;;;;;;;31.00;15.40;;;;;;;;;;5005397;28;20033;-81
2021/11/16 02:14:00;;;;;;;30.10;15.75;;;;;;;;;;5025218;28;20025;-83
2021/11/16 02:16:26;;;;;;;35.55;16.50;;;;;;;;;;5010476;28;20072;-82
2021/11/16 02:18:51;;;;;;;31.15;15.70;;;;;;;;;;5008443;28;20033;-82
2021/11/16 02:21:17;;;;;;;37.83;17.42;;;;;;;;;;5026069;28;20556;-81
2021/11/16 02:23:43;;;;;;;32.00;15.63;;;;;;;;;;5032149;28;20088;-83
2021/11/16 02:26:10;;;;;;;30.60;15.93;;;;;;;;;;5014879;28;20028;-85
2021/11/16 02:28:36;;;;;;;32.53;16.27;;;;;;;;;;5016542;28;20118;-85
2021/11/16 02:31:03;;;;;;;30.92;15.65;;;;;;;;;;5031016;28;20153;-83
2021/11/16 02:33:28;;;;;;;35.22;16.17;;;;;;;;;;5013265;28;21331;-84
2021/11/16 02:35:54;;;;;;;35.00;17.08;;;;;;;;;;5010668;28;20120;-84
2021/11/16 02:38:19;;;;;;;34.85;17.23;;;;;;;;;;5011998;28;20044;-84
2021/11/16 02:40:46;;;;;;;29.23;15.32;;;;;;;;;;5009193;28;20446;-83
2021/11/16 02:43:12;;;;;;;34.15;16.20;;;;;;;;;;5005437;28;20031;-84
2021/11/16 02:45:37;;;;;;;33.88;16.80;;;;;;;;;;5023966;28;20539;-84
2021/11/16 02:48:11;;;;;;;34.75;16.30;;;;;;;;;;5027028;28;20025;-85
2021/11/16 02:50:50;;;;;;;29.52;15.68;;;;;;;;;;5023401;28;20056;-84
2021/11/16 02:53:16;;;;;;;30.55;15.82;;;;;;;;;;5024870;28;20539;-83
2021/11/16 02:55:42;;;;;;;35.65;17.55;;;;;;;;;;5034455;28;20033;-84
2021/11/16 02:58:09;;;;;;;34.10;17.10;;;;;;;;;;5012267;28;20040;-86
2021/11/16 03:00:36;;;;;;;32.80;16.35;;;;;;;;;;5029949;28;20021;-84
2021/11/16 03:03:01;;;;;;;34.20;16.88;;;;;;;;;;5028944;28;20034;-86
2021/11/16 03:05:36;;;;;;;36.92;17.75;;;;;;;;;;5032316;28;20386;-83
2021/11/16 03:08:21;;;;;;;32.33;17.10;;;;;;;;;;5010237;28;20034;-83
2021/11/16 03:10:46;;;;;;;32.22;16.27;;;;;;;;;;5007777;28;20088;-82
2021/11/16 03:13:13;;;;;;;35.10;16.52;;;;;;;;;;5011379;28;20029;-85
2021/11/16 03:15:40;;;;;;;33.78;17.13;;;;;;;;;;5022025;28;20029;-82
2021/11/16 03:18:06;;;;;;;35.58;16.40;;;;;;;;;;5026275;28;20487;-85
2021/11/16 03:20:31;;;;;;;34.58;17.77;;;;;;;;;;5032694;28;20107;-84
2021/11/16 03:23:07;;;;;;;37.53;16.48;;;;;;;;;;5013516;28;20034;-82
2021/11/16 03:25:35;;;;;;;35.78;16.88;;;;;;;;;;5008747;28;20456;-82
2021/11/16 03:28:05;;;;;;;31.73;17.23;;;;;;;;;;5009886;28;20022;-83
2021/11/16 03:30:31;;;;;;;35.25;16.63;;;;;;;;;;5029490;28;20029;-82
2021/11/16 03:32:57;;;;;;;35.58;17.30;;;;;;;;;;5010878;28;20144;-82
2021/11/16 03:35:23;;;;;;;34.75;18.13;;;;;;;;;;5007397;28;20033;-82
2021/11/16 03:37:50;;;;;;;33.72;16.77;;;;;;;;;;5029128;28;20028;-83
2021/11/16 03:40:16;;;;;;;35.20;16.75;;;;;;;;;;5011871;28;20041;-82
2021/11/16 03:42:48;;;;;;;31.50;16.50;;;;;;;;;;5007609;28;20558;-82
2021/11/16 03:45:17;;;;;;;33.88;16.05;;;;;;;;;;5012287;28;20033;-82
2021/11/16 03:47:44;;;;;;;32.65;16.80;;;;;;;;;;5028864;28;20532;-82
2021/11/16 03:50:13;;;;;;;34.05;16.88;;;;;;;;;;5011686;28;20025;-83
2021/11/16 03:52:42;;;;;;;36.40;17.27;;;;;;;;;;5010129;28;20029;-83
2021/11/16 03:55:12;;;;;;;36.42;17.55;;;;;;;;;;5014322;28;20496;-82
2021/11/16 03:57:38;;;;;;;32.47;15.48;;;;;;;;;;5010176;28;20108;-86
2021/11/16 04:00:10;;;;;;;35.97;17.10;;;;;;;;;;5012481;28;20116;-83
2021/11/16 04:02:36;;;;;;;35.63;17.40;;;;;;;;;;5008787;28;20025;-84
2021/11/16 04:05:04;;;;;;;35.80;17.00;;;;;;;;;;5032589;28;20464;-82
2021/11/16 04:07:30;;;;;;;33.83;17.50;;;;;;;;;;5011187;28;20741;-83
2021/11/16 04:09:56;;;;;;;35.60;17.23;;;;;;;;;;5024570;28;20033;-85
2021/11/16 04:12:21;;;;;;;34.78;17.50;;;;;;;;;;5009088;28;20025;-86
2021/11/16 04:14:47;;;;;;;35.25;16.85;;;;;;;;;;5026148;28;20116;-82
2021/11/16 04:17:12;;;;;;;37.95;17.88;;;;;;;;;;5008939;28;20040;-82
2021/11/16 04:19:38;;;;;;;35.80;17.85;;;;;;;;;;5010902;28;20028;-82
2021/11/16 04:22:04;;;;;;;39.78;17.48;;;;;;;;;;5011827;28;20033;-84
2021/11/16 04:24:29;;;;;;;37.22;17.35;;;;;;;;;;5025900;28;20566;-82
2021/11/16 04:26:55;;;;;;;38.00;18.63;;;;;;;;;;5012763;28;20037;-84
2021/11/16 04:29:20;;;;;;;36.45;18.10;;;;;;;;;;5026432;28;20357;-84
2021/11/16 04:31:45;;;;;;;39.08;18.10;;;;;;;;;;5024603;28;20473;-84
2021/11/16 04:34:11;;;;;;;33.13;17.38;;;;;;;;;;5008035;28;20060;-84
2021/11/16 04:36:36;;;;;;;34.65;18.17;;;;;;;;;;5006448;28;20017;-85
2021/11/16 04:39:06;;;;;;;35.47;17.13;;;;;;;;;;5015346;28;20033;-82
2021/11/16 04:41:33;;;;;;;37.17;18.60;;;;;;;;;;5010095;28;20382;-82
2021/11/16 04:44:00;;;;;;;36.28;17.58;;;;;;;;;;5024175;28;20536;-82
2021/11/16 04:46:26;;;;;;;37.35;18.40;;;;;;;;;;5013577;28;20029;-82
2021/11/16 05:04:43;;;;;;;34.47;17.20;;;;;;;;;;5029640;28;20033;-82
2021/11/16 05:07:13;;;;;;;34.78;18.15;;;;;;;;;;5022144;28;20045;-82
2021/11/16 05:09:39;;;;;;;37.28;17.55;;;;;;;;;;5011555;28;20029;-82
2021/11/16 05:12:05;;;;;;;37.38;17.98;;;;;;;;;;5020406;28;20507;-85
2021/11/16 05:14:30;;;;;;;38.85;17.88;;;;;;;;;;5023929;28;20052;-82
2021/11/16 05:16:56;;;;;;;39.90;18.98;;;;;;;;;;5024636;28;20100;-86
2021/11/16 05:19:21;;;;;;;38.72;17.40;;;;;;;;;;5023251;28;20483;-82
2021/11/16 05:21:47;;;;;;;38.05;18.48;;;;;;;;;;5023938;28;20489;-82
2021/11/16 05:24:13;;;;;;;38.05;17.73;;;;;;;;;;5006584;28;20091;-86
2021/11/16 05:26:38;;;;;;;36.58;18.38;;;;;;;;;;5008489;28;20060;-86
2021/11/16 05:29:04;;;;;;;38.67;18.25;;;;;;;;;;5009952;28;20053;-86
2021/11/16 05:31:29;;;;;;;36.85;17.67;;;;;;;;;;5006712;28;20047;-86
2021/11/16 05:33:56;;;;;;;36.22;17.17;;;;;;;;;;5009429;28;20030;-86
2021/11/16 05:36:22;;;;;;;33.25;17.02;;;;;;;;;;5009656;28;20033;-84
2021/11/16 05:38:49;;;;;;;35.50;16.75;;;;;;;;;;5010234;28;20029;-85
2021/11/16 05:41:16;;;;;;;35.00;16.48;;;;;;;;;;5023679;28;20053;-82
2021/11/16 05:43:44;;;;;;;40.10;17.65;;;;;;;;;;5006210;28;20541;-82
2021/11/16 05:46:10;;;;;;;33.75;16.27;;;;;;;;;;5008233;28;20014;-82
2021/11/16 05:48:40;;;;;;;36.28;17.63;;;;;;;;;;5027243;28;20036;-82
2021/11/16 05:51:08;;;;;;;37.67;17.15;;;;;;;;;;5011049;28;20025;-84
2021/11/16 05:53:34;;;;;;;39.08;17.58;;;;;;;;;;5010217;28;20498;-83
2021/11/16 05:56:00;;;;;;;37.05;17.85;;;;;;;;;;5031471;28;20439;-81
2021/11/16 05:58:26;;;;;;;36.92;17.23;;;;;;;;;;5018386;28;20499;-83
2021/11/16 06:00:52;;;;;;;33.65;16.70;;;;;;;;;;5030916;28;20029;-85
2021/11/16 06:03:18;;;;;;;34.03;16.85;;;;;;;;;;5012147;28;20025;-84
2021/11/16 06:05:44;;;;;;;37.30;17.20;;;;;;;;;;5014988;28;20021;-82
2021/11/16 06:08:19;;;;;;;35.28;17.67;;;;;;;;;;5012247;28;20045;-84
2021/11/16 06:10:44;;;;;;;34.40;16.73;;;;;;;;;;5023469;28;20025;-84
2021/11/16 06:13:10;;;;;;;36.35;17.70;;;;;;;;;;5013188;28;20029;-82
2021/11/16 06:15:35;;;;;;;38.05;16.98;;;;;;;;;;5010761;28;20053;-85
2021/11/16 06:18:02;;;;;;;38.50;17.98;;;;;;;;;;5009419;28;20408;-85
2021/11/16 06:20:30;;;;;;;35.33;17.65;;;;;;;;;;5011594;28;20049;-84
2021/11/16 06:22:55;;;;;;;41.13;18.77;;;;;;;;;;5013627;28;20029;-86
2021/11/16 06:25:20;;;;;;;37.33;19.15;;;;;;;;;;5008380;28;20032;-84
2021/11/16 06:27:46;;;;;;;39.08;18.30;;;;;;;;;;5013401;28;20120;-81
2021/11/16 06:30:11;;;;;;;44.42;19.45;;;;;;;;;;5014583;28;20039;-82
2021/11/16 06:32:37;;;;;;;37.40;18.23;;;;;;;;;;5010910;28;20401;-83
2021/11/16 06:35:02;;;;;;;39.05;18.13;;;;;;;;;;5013034;28;20025;-83
2021/11/16 06:37:28;;;;;;;39.17;19.65;;;;;;;;;;5027916;28;20033;-84
2021/11/16 06:39:53;;;;;;;37.95;17.60;;;;;;;;;;5031689;28;20053;-84
2021/11/16 06:42:18;;;;;;;37.83;18.38;;;;;;;;;;5012193;28;20026;-82
2021/11/16 06:44:44;;;;;;;40.92;18.85;;;;;;;;;;5010001;28;20038;-84
2021/11/16 06:47:13;;;;;;;38.13;18.20;;;;;;;;;;5012323;28;20044;-85
2021/11/16 06:49:49;;;;;;;39.53;18.63;;;;;;;;;;5010744;28;20029;-82
2021/11/16 06:52:15;;;;;;;38.97;17.33;;;;;;;;;;5011623;28;20032;-84
2021/11/16 06:54:41;;;;;;;36.42;17.35;;;;;;;;;;5014173;28;20037;-82
2021/11/16 06:57:06;;;;;;;37.17;17.90;;;;;;;;;;5009313;28;20408;-82
2021/11/16 06:59:32;;;;;;;35.00;16.77;;;;;;;;;;5011746;28;20033;-84
2021/11/16 07:01:58;;;;;;;37.63;17.25;;;;;;;;;;5030174;28;20468;-83
2021/11/16 07:04:24;;;;;;;38.42;17.92;;;;;;;;;;5012702;28;20025;-85
2021/11/16 07:06:52;;;;;;;38.38;18.20;;;;;;;;;;5008756;28;20040;-83
2021/11/16 07:09:19;;;;;;;40.47;18.98;;;;;;;;;;5027248;28;20061;-82
2021/11/16 07:11:46;;;;;;;42.30;18.95;;;;;;;;;;5029899;28;20029;-82
2021/11/16 07:14:13;;;;;;;39.03;18.75;;;;;;;;;;5013093;28;20443;-82
2021/11/16 07:16:59;;;;;;;37.90;17.80;;;;;;;;;;5012893;28;20124;-85
2021/11/16 07:19:45;;;;;;;38.38;17.58;;;;;;;;;;5028557;28;20119;-83
2021/11/16 07:22:31;;;;;;;39.67;17.50;;;;;;;;;;5012846;28;20467;-84
2021/11/16 07:25:05;;;;;;;38.08;17.65;;;;;;;;;;5010499;28;20101;-82
2021/11/16 07:27:34;;;;;;;37.17;17.45;;;;;;;;;;5025730;28;20034;-83
2021/11/16 07:30:00;;;;;;;37.35;17.67;;;;;;;;;;5028572;28;20105;-84
2021/11/16 07:32:41;;;;;;;37.65;18.45;;;;;;;;;;5010502;28;20381;-84
2021/11/16 07:35:10;;;;;;;37.05;17.65;;;;;;;;;;5010127;28;20744;-82
2021/11/16 07:37:40;;;;;;;39.65;18.55;;;;;;;;;;5011912;28;20022;-82
2021/11/16 07:40:20;;;;;;;35.28;17.48;;;;;;;;;;5029259;28;20041;-83
2021/11/16 07:42:50;;;;;;;40.63;18.17;;;;;;;;;;5027414;28;20523;-82
2021/11/16 07:45:20;;;;;;;38.20;17.52;;;;;;;;;;5028265;28;20041;-83
2021/11/16 07:47:58;;;;;;;35.13;17.25;;;;;;;;;;5009421;28;20068;-83
2021/11/16 07:50:43;;;;;;;36.10;17.50;;;;;;;;;;5032976;28;20036;-83
2021/11/16 07:53:09;;;;;;;40.30;18.30;;;;;;;;;;5010907;28;20029;-80
2021/11/16 07:56:09;;;;;;;43.03;19.23;;;;;;;;;;5010433;28;20434;-80
2021/11/16 07:58:48;;;;;;;41.80;18.55;;;;;;;;;;4996614;28;20044;-83
2021/11/16 08:01:20;;;;;;;39.17;18.08;;;;;;;;;;5015503;28;20067;-83
2021/11/16 08:04:05;;;;;;;38.45;18.13;;;;;;;;;;5003372;28;20397;-85
2021/11/16 08:06:38;;;;;;;38.72;17.88;;;;;;;;;;5024054;28;20073;-82
2021/11/16 08:09:58;;;;;;;36.65;18.38;;;;;;;;;;5013280;28;20045;-83
2021/11/16 08:15:19;;;;;;;37.05;17.75;;;;;;;;;;5024090;28;20038;-85
2021/11/16 08:17:46;;;;;;;38.78;17.75;;;;;;;;;;5023026;28;20104;-82
2021/11/16 08:20:14;;;;;;;36.90;18.13;;;;;;;;;;5014611;28;20037;-84
2021/11/16 08:22:45;;;;;;;36.75;18.48;;;;;;;;;;5012859;28;20105;-82
2021/11/16 08:25:16;;;;;;;39.08;17.65;;;;;;;;;;5026099;28;20397;-84
2021/11/16 08:27:47;;;;;;;38.40;17.60;;;;;;;;;;5014107;28;20030;-83
2021/11/16 08:30:20;;;;;;;40.85;18.48;;;;;;;;;;5024282;28;20036;-85
2021/11/16 08:32:49;;;;;;;38.58;17.23;;;;;;;;;;5009721;28;20037;-85
2021/11/16 08:35:17;;;;;;;37.80;17.55;;;;;;;;;;5020909;28;20803;-83
2021/11/16 08:37:47;;;;;;;35.47;17.00;;;;;;;;;;5023889;28;20056;-82
2021/11/16 08:40:25;;;;;;;39.55;17.83;;;;;;;;;;5003618;28;20068;-83
2021/11/16 08:43:06;;;;;;;40.85;17.95;;;;;;;;;;5027609;28;20022;-82
2021/11/16 08:46:03;;;;;;;38.83;18.17;;;;;;;;;;5025700;28;20022;-81
2021/11/16 08:48:37;;;;;;;38.08;17.38;;;;;;;;;;5022407;28;20111;-83
2021/11/16 08:51:08;;;;;;;40.05;18.67;;;;;;;;;;5008910;28;20040;-82
2021/11/16 08:53:44;;;;;;;42.25;18.83;;;;;;;;;;5008161;28;20389;-83
2021/11/16 08:56:18;;;;;;;36.38;17.00;;;;;;;;;;5009335;28;20037;-85
2021/11/16 08:58:51;;;;;;;34.97;16.15;;;;;;;;;;5011841;28;20028;-81
2021/11/16 09:01:17;;;;;;;36.05;16.27;;;;;;;;;;5009543;28;20531;-83
2021/11/16 09:03:46;;;;;;;38.90;17.25;;;;;;;;;;5004781;28;20117;-80
2021/11/16 09:06:20;;;;;;;40.67;17.38;;;;;;;;;;5025810;28;20029;-83
2021/11/16 09:09:00;;;;;;;37.63;18.02;;;;;;;;;;5006035;28;20045;-81
2021/11/16 09:11:26;;;;;;;36.70;16.60;;;;;;;;;;5010454;28;20052;-82
2021/11/16 09:13:54;;;;;;;36.70;16.90;;;;;;;;;;5009554;28;20033;-81
2021/11/16 09:16:30;;;;;;;39.13;17.38;;;;;;;;;;5007559;28;20121;-82
2021/11/16 09:18:58;;;;;;;39.17;17.27;;;;;;;;;;5025998;28;20033;-81
2021/11/16 09:21:56;;;;;;;36.95;17.00;;;;;;;;;;5010616;28;20551;-79
2021/11/16 09:24:33;;;;;;;38.92;16.77;;;;;;;;;;5028803;28;20026;-81
2021/11/16 09:29:56;;;;;;;34.58;17.00;;;;;;;;;;5019255;28;20103;-80
2021/11/16 09:32:22;;;;;;;43.42;16.75;;;;;;;;;;5010607;28;20108;-82
2021/11/16 09:34:52;;;;;;;39.83;16.95;;;;;;;;;;5011088;28;20021;-82
2021/11/16 09:37:30;;;;;;;38.53;17.30;;;;;;;;;;5010337;28;20025;-82
2021/11/16 09:39:59;;;;;;;39.08;16.65;;;;;;;;;;5003912;28;20028;-83
2021/11/16 09:42:34;;;;;;;35.03;17.00;;;;;;;;;;5024378;28;20026;-83
2021/11/16 09:45:32;;;;;;;36.60;16.17;;;;;;;;;;5007671;28;20157;-83
2021/11/16 09:48:02;;;;;;;40.97;18.38;;;;;;;;;;5006224;28;20032;-83
2021/11/16 09:50:30;;;;;;;34.65;16.38;;;;;;;;;;5009255;28;20500;-82
2021/11/16 09:53:03;;;;;;;37.92;17.63;;;;;;;;;;5025715;28;20431;-86
2021/11/16 09:55:33;;;;;;;;;;;;;;;;;;5004114;28;20022;-83
2021/11/16 09:58:07;;;;;;;34.03;15.20;;;;;;;;;;5012116;28;19921;-82
2021/11/16 10:00:36;;;;;;;36.08;16.00;;;;;;;;;;5013703;28;20033;-83
2021/11/16 10:03:04;;;;;;;35.63;15.57;;;;;;;;;;5009138;28;20119;-81
2021/11/16 10:05:35;;;;;;;36.35;17.23;;;;;;;;;;5009080;28;20029;-84
2021/11/16 10:08:03;;;;;;;35.00;16.58;;;;;;;;;;5023774;28;20052;-82
2021/11/16 10:10:33;;;;;;;37.42;16.80;;;;;;;;;;5021183;28;20032;-82
2021/11/16 10:13:07;;;;;;;38.38;17.23;;;;;;;;;;5009454;28;20034;-82
2021/11/16 10:15:34;;;;;;;35.75;17.00;;;;;;;;;;5009550;28;20033;-82
2021/11/16 10:18:01;;;;;;;47.67;19.45;;;;;;;;;;5010646;28;20029;-82
2021/11/16 10:20:30;;;;;;;35.78;17.63;;;;;;;;;;5008346;28;20119;-82
2021/11/16 10:23:08;;;;;;;39.17;17.23;;;;;;;;;;5004468;28;20069;-82
2021/11/16 10:25:40;;;;;;;40.90;18.25;;;;;;;;;;5003001;28;20029;-82
2021/11/16 10:28:11;;;;;;;38.05;16.92;;;;;;;;;;5026208;28;20025;-81
2021/11/16 10:30:37;;;;;;;38.88;17.05;;;;;;;;;;5022167;28;20037;-82
2021/11/16 10:33:22;;;;;;;41.67;18.15;;;;;;;;;;5009689;28;20042;-82
2021/11/16 10:35:52;;;;;;;39.28;17.40;;;;;;;;;;5008853;28;20163;-84
2021/11/16 10:38:47;;;;;;;38.90;18.02;;;;;;;;;;5004518;28;20025;-85
2021/11/16 10:41:16;;;;;;;42.03;18.58;;;;;;;;;;5022389;28;20041;-85
2021/11/16 10:44:20;;;;;;;;;;;;;;;;;;;;;
2021/11/16 10:46:47;;;;;;;42.10;18.25;;;;;;;;;;5022431;28;20044;-81
2021/11/16 10:50:10;;;;;;;40.92;17.30;;;;;;;;;;5013128;28;20048;-82
2021/11/16 10:52:37;;;;;;;40.15;16.92;;;;;;;;;;4994295;28;20042;-83
2021/11/16 10:55:05;;;;;;;34.45;15.85;;;;;;;;;;5027201;28;20021;-85
2021/11/16 10:57:53;;;;;;;39.95;17.30;;;;;;;;;;5027247;28;20044;-82
2021/11/16 11:00:32;;;;;;;38.63;17.10;;;;;;;;;;5025691;28;20115;-84
2021/11/16 11:03:21;;;;;;;36.13;16.58;;;;;;;;;;5022315;28;20145;-82
2021/11/16 11:05:49;;;;;;;35.05;15.93;;;;;;;;;;5010252;28;20485;-85
2021/11/16 11:09:09;;;;;;;34.90;15.60;;;;;;;;;;5013350;28;20042;-82
2021/11/16 11:12:14;;;;;;;33.75;16.23;;;;;;;;;;5031177;28;20033;-82
2021/11/16 11:14:45;;;;;;;36.28;16.52;;;;;;;;;;5025188;28;20046;-84
2021/11/16 11:17:16;;;;;;;35.97;16.05;;;;;;;;;;5029453;28;20032;-84
2021/11/16 11:19:44;;;;;;;32.38;15.70;;;;;;;;;;5010121;28;20034;-82
2021/11/16 11:22:50;;;;;;;39.72;16.65;;;;;;;;;;5010983;28;20021;-85
2021/11/16 11:26:18;;;;;;;37.10;15.48;;;;;;;;;;5019717;28;20389;-82
2021/11/16 11:29:03;;;;;;;37.63;16.40;;;;;;;;;;4957670;28;20031;-83
2021/11/16 11:31:45;;;;;;;35.33;14.48;;;;;;;;;;5005976;28;20069;-81
2021/11/16 11:34:31;;;;;;;36.40;16.35;;;;;;;;;;4987729;28;20504;-82
2021/11/16 11:37:02;;;;;;;39.25;15.90;;;;;;;;;;4986557;28;20026;-82
2021/11/16 11:39:33;;;;;;;34.97;16.13;;;;;;;;;;4999505;28;20112;-83
2021/11/16 11:42:17;;;;;;;35.22;15.57;;;;;;;;;;4990110;28;20101;-83
2021/11/16 11:44:56;;;;;;;33.03;15.07;;;;;;;;;;4989788;28;20036;-81
2021/11/16 11:47:27;;;;;;;34.92;16.05;;;;;;;;;;5009705;28;20049;-81
2021/11/16 11:49:55;;;;;;;38.75;16.73;;;;;;;;;;4992913;28;20029;-81
2021/11/16 11:52:21;;;;;;;36.50;15.93;;;;;;;;;;4986582;28;20060;-81
2021/11/16 11:54:48;;;;;;;34.22;15.32;;;;;;;;;;4990834;28;20025;-84
2021/11/16 11:57:13;;;;;;;38.90;16.25;;;;;;;;;;4992024;28;20045;-80
2021/11/16 11:59:39;;;;;;;40.47;17.25;;;;;;;;;;4987908;28;20026;-82
2021/11/16 12:02:06;;;;;;;40.55;18.55;;;;;;;;;;4996524;28;20045;-82
2021/11/16 12:04:33;;;;;;;35.15;17.48;;;;;;;;;;5008772;28;20116;-81
2021/11/16 12:06:59;;;;;;;35.00;15.50;;;;;;;;;;5009769;28;20018;-81
2021/11/16 12:09:28;;;;;;;33.40;15.85;;;;;;;;;;5005055;28;20033;-81
2021/11/16 12:11:54;;;;;;;32.17;14.70;;;;;;;;;;5013336;28;20498;-82
2021/11/16 12:15:00;;;;;;;29.25;13.25;;;;;;;;;;5007407;28;20018;-83
2021/11/16 12:17:31;;;;;;;28.67;13.45;;;;;;;;;;4965470;28;20054;-83
2021/11/16 12:19:56;;;;;;;34.95;14.45;;;;;;;;;;5003399;28;20041;-81
2021/11/16 12:22:25;;;;;;;32.72;15.65;;;;;;;;;;5005598;28;20559;-82
2021/11/16 12:24:53;;;;;;;35.53;15.30;;;;;;;;;;5006836;28;20029;-82
2021/11/16 12:27:22;;;;;;;35.83;15.43;;;;;;;;;;5024231;28;20033;-80
2021/11/16 12:29:51;;;;;;;36.72;15.88;;;;;;;;;;5013143;28;20061;-82
2021/11/16 12:32:35;;;;;;;35.22;15.57;;;;;;;;;;5010324;28;20037;-82
2021/11/16 12:35:14;;;;;;;33.55;14.57;;;;;;;;;;5029674;28;20481;-81
2021/11/16 12:37:54;;;;;;;37.28;17.63;;;;;;;;;;5006459;28;20466;-81
2021/11/16 12:40:41;;;;;;;32.05;14.30;;;;;;;;;;5024068;28;20223;-81
2021/11/16 12:43:06;;;;;;;36.50;14.63;;;;;;;;;;5024525;28;20021;-83
2021/11/16 12:45:51;;;;;;;34.80;15.68;;;;;;;;;;5024629;28;20029;-81
2021/11/16 12:48:42;;;;;;;35.58;14.18;;;;;;;;;;5014459;28;20115;-84
2021/11/16 12:51:19;;;;;;;30.98;14.10;;;;;;;;;;5016230;28;20040;-80
2021/11/16 12:54:09;;;;;;;33.20;14.07;;;;;;;;;;5029043;28;20037;-80
2021/11/16 12:56:40;;;;;;;31.27;14.32;;;;;;;;;;5013112;28;20017;-81
2021/11/16 12:59:06;;;;;;;32.88;14.15;;;;;;;;;;5024598;28;20103;-83
2021/11/16 13:01:43;;;;;;;28.92;13.57;;;;;;;;;;5010162;28;20034;-80
2021/11/16 13:04:14;;;;;;;26.35;12.20;;;;;;;;;;5010493;28;20025;-81
2021/11/16 13:06:42;;;;;;;30.33;13.25;;;;;;;;;;5027242;28;20037;-84
2021/11/16 13:09:29;;;;;;;25.75;12.07;;;;;;;;;;5006222;28;20076;-81
2021/11/16 13:11:54;;;;;;;31.20;13.52;;;;;;;;;;5013750;28;20033;-83
2021/11/16 13:14:38;;;;;;;29.88;13.00;;;;;;;;;;5011226;28;20396;-81
2021/11/16 13:17:38;;;;;;;30.75;13.90;;;;;;;;;;5007905;28;20059;-80
2021/11/16 13:20:05;;;;;;;33.40;14.93;;;;;;;;;;5008451;28;20037;-80
2021/11/16 13:22:52;;;;;;;31.92;13.13;;;;;;;;;;5012816;28;20132;-81
2021/11/16 13:25:44;;;;;;;33.60;14.70;;;;;;;;;;5010602;28;20037;-80
2021/11/16 13:28:26;;;;;;;33.35;13.57;;;;;;;;;;5007717;28;20037;-80
2021/11/16 13:31:21;;;;;;;32.03;13.98;;;;;;;;;;5027267;28;20034;-82
2021/11/16 13:33:58;;;;;;;36.75;14.32;;;;;;;;;;5007813;28;20442;-80
2021/11/16 13:36:28;;;;;;;30.80;13.18;;;;;;;;;;5022476;28;20029;-84
2021/11/16 13:39:00;;;;;;;32.25;13.80;;;;;;;;;;5002395;28;20053;-81
2021/11/16 13:41:42;;;;;;;32.38;14.15;;;;;;;;;;5028758;28;20044;-83
2021/11/16 13:44:27;;;;;;;32.67;13.80;;;;;;;;;;5002178;28;20034;-81
2021/11/16 13:46:54;;;;;;;29.58;13.73;;;;;;;;;;5009612;28;20319;-81
2021/11/16 13:49:47;;;;;;;33.92;14.40;;;;;;;;;;5023372;28;20083;-81
2021/11/16 13:52:18;;;;;;;29.77;13.15;;;;;;;;;;4970851;28;22538;-81
2021/11/16 13:54:46;;;;;;;30.08;12.77;;;;;;;;;;5002030;28;20041;-81
2021/11/16 13:57:15;;;;;;;30.83;13.68;;;;;;;;;;5008264;28;20029;-83
2021/11/16 13:59:42;;;;;;;31.67;13.70;;;;;;;;;;5010234;28;20030;-83
2021/11/16 14:02:10;;;;;;;33.63;13.57;;;;;;;;;;5019974;28;20116;-82
2021/11/16 14:04:35;;;;;;;34.05;13.60;;;;;;;;;;5018390;28;20692;-81
2021/11/16 14:07:17;;;;;;;36.83;15.57;;;;;;;;;;5025951;28;20030;-81
2021/11/16 14:10:00;;;;;;;30.60;14.02;;;;;;;;;;5006156;28;20722;-81
2021/11/16 14:12:26;;;;;;;;;;;;;;;;;;5021653;28;20029;-81
2021/11/16 14:14:57;;;;;;;34.83;14.40;;;;;;;;;;5005000;28;19928;-83
2021/11/16 14:17:22;;;;;;;34.38;14.15;;;;;;;;;;5010028;28;20414;-81
2021/11/16 14:19:54;;;;;;;34.55;14.95;;;;;;;;;;5013333;28;20037;-81
2021/11/16 14:22:33;;;;;;;36.40;14.38;;;;;;;;;;5011421;28;20033;-81
2021/11/16 14:25:13;;;;;;;33.90;13.88;;;;;;;;;;5027013;28;20033;-83
2021/11/16 14:27:39;;;;;;;35.47;13.75;;;;;;;;;;5010077;28;20147;-83
2021/11/16 14:30:08;;;;;;;28.85;13.35;;;;;;;;;;5009834;28;20041;-83
2021/11/16 14:32:35;;;;;;;32.50;13.88;;;;;;;;;;5011095;28;20476;-81
2021/11/16 14:35:00;;;;;;;32.55;13.57;;;;;;;;;;5012159;28;20021;-81
2021/11/16 14:37:26;;;;;;;35.58;14.35;;;;;;;;;;5029731;28;20083;-81
2021/11/16 14:39:51;;;;;;;34.15;14.85;;;;;;;;;;5008568;28;20036;-81
2021/11/16 14:42:19;;;;;;;33.47;14.52;;;;;;;;;;5008666;28;20029;-81
2021/11/16 14:44:49;;;;;;;31.85;13.43;;;;;;;;;;5008070;28;20021;-81
2021/11/16 14:47:19;;;;;;;34.08;14.90;;;;;;;;;;5010868;28;20503;-81
2021/11/16 14:52:12;;;;;;;32.00;13.93;;;;;;;;;;5023050;28;20026;-81
2021/11/16 14:54:38;;;;;;;34.67;12.68;;;;;;;;;;5007398;28;20088;-81
2021/11/16 14:57:03;;;;;;;38.88;14.68;;;;;;;;;;5007504;28;20033;-82
2021/11/16 14:59:32;;;;;;;33.13;13.82;;;;;;;;;;5028397;28;20488;-83
2021/11/16 15:02:00;;;;;;;35.85;14.98;;;;;;;;;;5027856;28;20111;-81
2021/11/16 15:04:32;;;;;;;35.85;14.82;;;;;;;;;;5009438;28;20087;-81
2021/11/16 15:10:51;;;;;;;33.33;13.80;;;;;;;;;;5028643;28;20094;-82
2021/11/16 15:13:24;;;;;;;35.15;13.70;;;;;;;;;;5023438;28;20044;-81